createdAt,value
2017-01-10T00:00:07.433Z,0.93
2017-01-10T00:01:07.962Z,0.94
2017-01-10T00:02:07.470Z,0.67
2017-01-10T00:03:07.902Z,0.84
2017-01-10T00:04:07.390Z,0.92
2017-01-10T00:05:08.053Z,0.87
2017-01-10T00:06:07.578Z,0.85
2017-01-10T00:07:08.301Z,0.99
2017-01-10T00:08:07.364Z,0.70
2017-01-10T00:09:08.031Z,0.84
2017-01-10T00:10:07.672Z,0.73
2017-01-10T00:11:07.195Z,0.72
2017-01-10T00:12:07.669Z,0.91
2017-01-10T00:13:07.241Z,0.83
2017-01-10T00:14:08.106Z,0.98
2017-01-10T00:15:07.688Z,0.94
2017-01-10T00:16:07.233Z,1.02
2017-01-10T00:17:07.859Z,1.15
2017-01-10T00:18:07.444Z,1.14
2017-01-10T00:19:07.991Z,1.05
2017-01-10T00:20:07.731Z,1.16
2017-01-10T00:21:07.248Z,1.02
2017-01-10T00:22:07.818Z,0.97
2017-01-10T00:23:07.312Z,0.81
2017-01-10T00:24:07.910Z,0.70
2017-01-10T00:25:07.475Z,0.62
2017-01-10T00:26:08.080Z,0.74
2017-01-10T00:27:07.645Z,0.91
2017-01-10T00:28:07.067Z,0.86
2017-01-10T00:29:07.545Z,0.99
2017-01-10T00:30:08.191Z,0.86
2017-01-10T00:31:07.776Z,0.89
2017-01-10T00:32:07.362Z,0.95
2017-01-10T00:33:07.860Z,1.11
2017-01-10T00:34:07.475Z,1.15
2017-01-10T00:35:08.144Z,1.05
2017-01-10T00:36:07.936Z,0.84
2017-01-10T00:37:07.456Z,1.00
2017-01-10T00:38:08.158Z,1.00
2017-01-10T00:39:07.726Z,1.01
2017-01-10T00:40:07.272Z,0.76
2017-01-10T00:41:07.849Z,0.71
2017-01-10T00:42:07.387Z,0.63
2017-01-10T00:44:07.405Z,0.42
2017-01-10T00:44:11.131Z,0.46
2017-01-10T00:45:07.719Z,0.69
2017-01-10T00:46:07.265Z,0.76
2017-01-10T00:47:07.727Z,0.90
2017-01-10T00:48:07.272Z,0.82
2017-01-10T00:49:07.780Z,0.83
2017-01-10T00:50:07.618Z,0.75
2017-01-10T00:51:07.100Z,0.65
2017-01-10T00:52:07.750Z,0.99
2017-01-10T00:53:07.294Z,0.97
2017-01-10T00:54:07.773Z,0.85
2017-01-10T00:55:07.384Z,0.87
2017-01-10T00:56:07.928Z,0.78
2017-01-10T00:57:07.617Z,0.71
2017-01-10T00:58:07.080Z,0.54
2017-01-10T00:59:07.680Z,0.54
2017-01-10T01:00:07.594Z,0.62
2017-01-10T01:01:08.044Z,0.54
2017-01-10T01:02:07.593Z,0.42
2017-01-10T01:03:07.106Z,0.61
2017-01-10T01:04:07.572Z,0.52
2017-01-10T01:05:07.969Z,0.71
2017-01-10T01:06:07.525Z,0.67
2017-01-10T01:07:07.983Z,0.69
2017-01-10T01:08:08.587Z,0.48
2017-01-10T01:09:08.138Z,0.51
2017-01-10T01:10:07.667Z,0.50
2017-01-10T01:11:07.246Z,0.66
2017-01-10T01:12:07.776Z,0.47
2017-01-10T01:13:07.298Z,0.51
2017-01-10T01:14:07.087Z,0.69
2017-01-10T01:15:08.045Z,0.44
2017-01-10T01:16:07.475Z,0.44
2017-01-10T01:17:07.784Z,0.53
2017-01-10T01:18:07.566Z,0.39
2017-01-10T01:19:08.086Z,0.39
2017-01-10T01:20:07.839Z,0.50
2017-01-10T01:21:07.423Z,0.55
2017-01-10T01:22:08.241Z,0.74
2017-01-10T01:23:07.994Z,0.80
2017-01-10T01:24:07.556Z,0.84
2017-01-10T01:25:07.710Z,0.71
2017-01-10T01:26:07.233Z,0.71
2017-01-10T01:27:07.815Z,0.84
2017-01-10T01:28:07.582Z,0.73
2017-01-10T01:29:08.334Z,0.52
2017-01-10T01:30:07.871Z,0.43
2017-01-10T01:31:07.658Z,0.49
2017-01-10T01:32:07.399Z,0.36
2017-01-10T01:33:07.945Z,0.39
2017-01-10T01:34:07.507Z,0.51
2017-01-10T01:35:08.173Z,0.34
2017-01-10T01:36:07.854Z,0.46
2017-01-10T01:37:07.336Z,0.51
2017-01-10T01:38:07.946Z,0.31
2017-01-10T01:39:07.564Z,0.49
2017-01-10T01:40:08.314Z,0.59
2017-01-10T01:41:07.988Z,0.68
2017-01-10T01:42:07.759Z,0.67
2017-01-10T01:43:07.284Z,0.70
2017-01-10T01:44:07.808Z,0.84
2017-01-10T01:45:07.357Z,0.89
2017-01-10T01:46:07.908Z,0.71
2017-01-10T01:47:07.477Z,0.73
2017-01-10T01:48:08.006Z,0.77
2017-01-10T01:49:07.565Z,0.79
2017-01-10T01:50:08.083Z,0.87
2017-01-10T01:51:07.626Z,0.89
2017-01-10T01:52:07.221Z,0.88
2017-01-10T01:53:07.787Z,0.94
2017-01-10T01:54:07.404Z,1.03
2017-01-10T01:55:07.905Z,0.98
2017-01-10T01:56:07.755Z,0.75
2017-01-10T01:57:07.552Z,0.94
2017-01-10T01:58:08.003Z,0.83
2017-01-10T01:59:07.676Z,0.49
2017-01-10T02:00:07.218Z,0.48
2017-01-10T02:01:07.805Z,0.51
2017-01-10T02:02:07.352Z,0.44
2017-01-10T02:03:07.866Z,0.51
2017-01-10T02:04:07.755Z,0.68
2017-01-10T02:05:07.427Z,0.74
2017-01-10T02:06:08.123Z,0.72
2017-01-10T02:07:08.175Z,0.86
2017-01-10T02:08:07.685Z,0.52
2017-01-10T02:09:07.442Z,0.62
2017-01-10T02:10:08.007Z,0.46
2017-01-10T02:11:07.556Z,0.52
2017-01-10T02:12:08.108Z,0.26
2017-01-10T02:13:07.607Z,0.41
2017-01-10T02:14:07.476Z,0.30
2017-01-10T02:15:08.002Z,0.29
2017-01-10T02:16:07.476Z,0.31
2017-01-10T02:17:08.125Z,0.16
2017-01-10T02:18:07.625Z,0.26
2017-01-10T02:19:07.231Z,0.38
2017-01-10T02:20:07.792Z,0.62
2017-01-10T02:21:07.618Z,0.83
2017-01-10T02:22:07.136Z,0.69
2017-01-10T02:24:07.923Z,0.68
2017-01-10T02:24:10.721Z,0.47
2017-01-10T02:25:07.520Z,0.46
2017-01-10T02:26:08.104Z,0.22
2017-01-10T02:27:07.726Z,0.32
2017-01-10T02:28:07.363Z,0.25
2017-01-10T02:29:07.944Z,0.35
2017-01-10T02:30:07.438Z,0.22
2017-01-10T02:31:07.867Z,0.47
2017-01-10T02:32:07.924Z,0.48
2017-01-10T02:33:07.421Z,0.28
2017-01-10T02:34:07.931Z,0.44
2017-01-10T02:35:07.544Z,0.51
2017-01-10T02:36:08.223Z,0.56
2017-01-10T02:37:07.880Z,0.61
2017-01-10T02:38:07.368Z,0.52
2017-01-10T02:39:08.023Z,0.58
2017-01-10T02:40:07.606Z,0.45
2017-01-10T02:41:07.075Z,0.28
2017-01-10T02:42:07.675Z,0.22
2017-01-10T02:43:07.299Z,0.37
2017-01-10T02:44:07.932Z,0.55
2017-01-10T02:45:07.565Z,0.64
2017-01-10T02:46:08.039Z,0.36
2017-01-10T02:47:07.810Z,0.39
2017-01-10T02:48:07.402Z,0.34
2017-01-10T02:49:07.865Z,0.35
2017-01-10T02:50:07.347Z,0.22
2017-01-10T02:51:08.148Z,0.17
2017-01-10T02:52:07.720Z,0.29
2017-01-10T02:53:07.248Z,0.28
2017-01-10T02:54:07.863Z,0.46
2017-01-10T02:55:08.178Z,0.45
2017-01-10T02:56:07.743Z,0.50
2017-01-10T02:57:07.266Z,0.41
2017-01-10T02:58:07.826Z,0.59
2017-01-10T02:59:07.312Z,0.50
2017-01-10T03:00:07.818Z,0.51
2017-01-10T03:01:07.353Z,0.43
2017-01-10T03:02:07.912Z,0.48
2017-01-10T03:03:07.771Z,0.37
2017-01-10T03:04:07.315Z,0.21
2017-01-10T03:05:07.956Z,0.14
2017-01-10T03:06:07.493Z,0.32
2017-01-10T03:07:22.485Z,0.33
2017-01-10T03:08:07.760Z,0.55
2017-01-10T03:09:07.309Z,0.42
2017-01-10T03:10:07.783Z,0.49
2017-01-10T03:11:07.252Z,0.63
2017-01-10T03:12:07.856Z,0.39
2017-01-10T03:13:07.542Z,0.14
2017-01-10T03:14:08.152Z,0.33
2017-01-10T03:16:10.802Z,0.18
2017-01-10T03:17:07.405Z,0.31
2017-01-10T03:18:08.159Z,0.44
2017-01-10T03:19:07.697Z,0.46
2017-01-10T03:20:07.510Z,0.51
2017-01-10T03:21:08.144Z,0.51
2017-01-10T03:22:07.793Z,0.56
2017-01-10T03:23:07.226Z,0.44
2017-01-10T03:24:08.001Z,0.35
2017-01-10T03:25:07.483Z,0.51
2017-01-10T03:26:08.397Z,0.60
2017-01-10T03:27:07.944Z,0.51
2017-01-10T03:28:07.492Z,0.61
2017-01-10T03:29:08.033Z,0.47
2017-01-10T03:30:07.515Z,0.46
2017-01-10T03:31:08.023Z,0.60
2017-01-10T03:32:07.494Z,0.52
2017-01-10T03:33:08.047Z,0.40
2017-01-10T03:34:07.541Z,0.50
2017-01-10T03:35:08.334Z,0.60
2017-01-10T03:36:07.831Z,0.56
2017-01-10T03:37:07.344Z,0.63
2017-01-10T03:38:07.827Z,0.57
2017-01-10T03:39:07.410Z,0.69
2017-01-10T03:40:07.964Z,0.70
2017-01-10T03:41:07.633Z,0.58
2017-01-10T03:42:07.134Z,0.35
2017-01-10T03:43:07.665Z,0.31
2017-01-10T03:44:07.237Z,0.53
2017-01-10T03:45:07.897Z,0.44
2017-01-10T03:46:07.409Z,0.65
2017-01-10T03:47:08.188Z,0.63
2017-01-10T03:48:07.734Z,0.60
2017-01-10T03:49:07.297Z,0.66
2017-01-10T03:50:07.864Z,0.59
2017-01-10T03:51:07.347Z,0.49
2017-01-10T03:52:07.933Z,0.64
2017-01-10T03:53:07.457Z,0.79
2017-01-10T03:54:08.082Z,0.74
2017-01-10T03:55:07.628Z,0.69
2017-01-10T03:56:07.205Z,0.68
2017-01-10T03:57:07.793Z,0.70
2017-01-10T03:58:07.679Z,0.73
2017-01-10T03:59:07.148Z,0.78
2017-01-10T04:00:07.959Z,0.78
2017-01-10T04:01:07.686Z,0.62
2017-01-10T04:02:07.223Z,0.33
2017-01-10T04:03:07.734Z,0.32
2017-01-10T04:04:07.214Z,0.27
2017-01-10T04:05:07.827Z,0.18
2017-01-10T04:07:10.479Z,0.21
2017-01-10T04:07:17.604Z,0.06
2017-01-10T04:08:08.035Z,0.14
2017-01-10T04:09:07.477Z,-0.04
2017-01-10T04:10:08.076Z,0.26
2017-01-10T04:11:07.632Z,0.41
2017-01-10T04:12:07.231Z,0.35
2017-01-10T04:13:07.782Z,0.38
2017-01-10T04:14:07.250Z,0.25
2017-01-10T04:15:08.033Z,0.15
2017-01-10T04:16:07.621Z,0.01
2017-01-10T04:17:07.268Z,0.09
2017-01-10T04:18:07.943Z,0.28
2017-01-10T04:19:07.426Z,0.37
2017-01-10T04:20:08.042Z,0.34
2017-01-10T04:21:07.561Z,0.17
2017-01-10T04:22:08.144Z,0.18
2017-01-10T04:23:07.664Z,0.28
2017-01-10T04:24:07.232Z,0.15
2017-01-10T04:25:07.797Z,0.29
2017-01-10T04:26:08.347Z,0.02
2017-01-10T04:27:07.757Z,0.20
2017-01-10T04:28:07.208Z,0.09
2017-01-10T04:29:07.704Z,-0.08
2017-01-10T04:30:07.346Z,-0.21
2017-01-10T04:31:07.805Z,-0.16
2017-01-10T04:32:08.019Z,0.14
2017-01-10T04:33:07.470Z,0.18
2017-01-10T04:34:07.921Z,0.04
2017-01-10T04:35:07.584Z,0.01
2017-01-10T04:36:07.116Z,0.24
2017-01-10T04:37:07.533Z,0.08
2017-01-10T04:38:07.301Z,0.25
2017-01-10T04:39:07.821Z,0.24
2017-01-10T04:40:07.414Z,0.11
2017-01-10T04:41:07.939Z,-0.15
2017-01-10T04:42:07.482Z,-0.15
2017-01-10T04:43:08.266Z,-0.02
2017-01-10T04:44:07.819Z,0.01
2017-01-10T04:45:07.450Z,0.04
2017-01-10T04:46:08.324Z,0.12
2017-01-10T04:47:07.810Z,0.23
2017-01-10T04:48:07.249Z,0.24
2017-01-10T04:49:07.966Z,0.12
2017-01-10T04:50:07.594Z,0.37
2017-01-10T04:51:07.086Z,0.34
2017-01-10T04:52:07.573Z,0.07
2017-01-10T04:53:08.084Z,0.13
2017-01-10T04:54:08.506Z,-0.03
2017-01-10T04:55:08.110Z,-0.13
2017-01-10T04:56:07.921Z,-0.18
2017-01-10T04:57:07.552Z,-0.10
2017-01-10T04:58:07.995Z,0.01
2017-01-10T04:59:07.765Z,-0.15
2017-01-10T05:00:07.490Z,-0.39
2017-01-10T05:01:07.973Z,-0.34
2017-01-10T05:02:07.424Z,-0.29
2017-01-10T05:03:07.953Z,-0.15
2017-01-10T05:04:07.503Z,-0.08
2017-01-10T05:05:08.176Z,-0.13
2017-01-10T05:06:07.967Z,-0.01
2017-01-10T05:07:07.422Z,-0.23
2017-01-10T05:08:07.947Z,-0.08
2017-01-10T05:09:07.433Z,-0.02
2017-01-10T05:10:07.984Z,0.15
2017-01-10T05:11:07.613Z,-0.03
2017-01-10T05:12:07.423Z,-0.26
2017-01-10T05:13:07.439Z,-0.03
2017-01-10T05:14:07.892Z,-0.26
2017-01-10T05:15:08.586Z,-0.10
2017-01-10T05:16:07.112Z,-0.09
2017-01-10T05:17:07.822Z,-0.19
2017-01-10T05:18:07.281Z,-0.18
2017-01-10T05:19:07.883Z,-0.28
2017-01-10T05:20:07.470Z,-0.28
2017-01-10T05:21:08.027Z,0.05
2017-01-10T05:22:07.527Z,-0.02
2017-01-10T05:23:08.073Z,-0.18
2017-01-10T05:24:07.633Z,-0.24
2017-01-10T05:25:09.809Z,-0.21
2017-01-10T05:26:07.419Z,-0.39
2017-01-10T05:27:07.978Z,-0.40
2017-01-10T05:28:07.473Z,-0.39
2017-01-10T05:29:07.926Z,-0.10
2017-01-10T05:30:07.958Z,-0.18
2017-01-10T05:31:07.516Z,0.11
2017-01-10T05:32:08.108Z,0.34
2017-01-10T05:33:07.639Z,0.26
2017-01-10T05:34:07.454Z,0.11
2017-01-10T05:35:08.036Z,-0.03
2017-01-10T05:36:07.654Z,0.19
2017-01-10T05:37:07.116Z,-0.14
2017-01-10T05:38:07.625Z,0.05
2017-01-10T05:39:07.126Z,-0.11
2017-01-10T05:40:07.637Z,-0.22
2017-01-10T05:41:07.116Z,-0.07
2017-01-10T05:42:07.633Z,-0.19
2017-01-10T05:43:07.191Z,0.16
2017-01-10T05:44:07.647Z,-0.05
2017-01-10T05:45:07.167Z,-0.08
2017-01-10T05:46:07.727Z,-0.13
2017-01-10T05:47:07.592Z,-0.11
2017-01-10T05:48:07.182Z,-0.27
2017-01-10T05:49:07.797Z,-0.19
2017-01-10T05:50:07.343Z,-0.07
2017-01-10T05:51:07.953Z,-0.01
2017-01-10T05:52:07.511Z,-0.06
2017-01-10T05:53:07.985Z,-0.02
2017-01-10T05:54:07.650Z,-0.21
2017-01-10T05:55:07.345Z,-0.34
2017-01-10T05:56:07.944Z,-0.35
2017-01-10T05:57:07.697Z,-0.28
2017-01-10T05:58:07.235Z,-0.64
2017-01-10T05:59:07.831Z,-0.60
2017-01-10T06:00:07.365Z,-0.43
2017-01-10T06:01:07.948Z,-0.37
2017-01-10T06:02:07.505Z,-0.61
2017-01-10T06:03:08.093Z,-0.47
2017-01-10T06:04:07.628Z,-0.53
2017-01-10T06:05:07.230Z,-0.37
2017-01-10T06:06:07.784Z,-0.54
2017-01-10T06:07:07.402Z,-0.68
2017-01-10T06:08:07.955Z,-0.89
2017-01-10T06:09:07.399Z,-0.85
2017-01-10T06:10:07.995Z,-0.72
2017-01-10T06:11:07.504Z,-0.68
2017-01-10T06:12:08.019Z,-0.73
2017-01-10T06:13:07.791Z,-0.67
2017-01-10T06:14:07.331Z,-0.57
2017-01-10T06:15:07.856Z,-0.79
2017-01-10T06:17:10.639Z,-0.93
2017-01-10T06:17:17.805Z,-1.09
2017-01-10T06:18:07.284Z,-1.11
2017-01-10T06:19:07.843Z,-1.22
2017-01-10T06:20:07.425Z,-1.17
2017-01-10T06:21:08.026Z,-1.05
2017-01-10T06:22:07.537Z,-0.93
2017-01-10T06:23:08.101Z,-1.12
2017-01-10T06:24:07.645Z,-0.85
2017-01-10T06:25:07.132Z,-0.96
2017-01-10T06:26:07.685Z,-0.97
2017-01-10T06:27:07.138Z,-1.00
2017-01-10T06:28:07.761Z,-1.12
2017-01-10T06:29:07.273Z,-1.09
2017-01-10T06:30:08.005Z,-0.99
2017-01-10T06:31:07.710Z,-0.98
2017-01-10T06:32:07.229Z,-1.07
2017-01-10T06:33:07.731Z,-1.30
2017-01-10T06:34:07.189Z,-1.29
2017-01-10T06:35:07.897Z,-1.16
2017-01-10T06:36:07.506Z,-1.45
2017-01-10T06:37:08.081Z,-1.47
2017-01-10T06:38:07.606Z,-1.29
2017-01-10T06:39:07.123Z,-1.28
2017-01-10T06:40:07.640Z,-1.47
2017-01-10T06:41:07.280Z,-1.40
2017-01-10T06:42:07.826Z,-1.60
2017-01-10T06:43:07.332Z,-1.37
2017-01-10T06:44:08.166Z,-1.50
2017-01-10T06:45:07.691Z,-1.42
2017-01-10T06:46:07.215Z,-1.45
2017-01-10T06:47:07.816Z,-1.68
2017-01-10T06:48:07.485Z,-1.57
2017-01-10T06:49:08.195Z,-1.88
2017-01-10T06:50:07.705Z,-1.76
2017-01-10T06:51:07.322Z,-1.60
2017-01-10T06:52:07.836Z,-1.49
2017-01-10T06:53:07.335Z,-1.34
2017-01-10T06:54:08.112Z,-1.32
2017-01-10T06:55:07.627Z,-1.57
2017-01-10T06:56:07.204Z,-1.33
2017-01-10T06:57:07.799Z,-1.39
2017-01-10T06:58:07.270Z,-1.37
2017-01-10T06:59:08.707Z,-1.25
2017-01-10T07:00:07.288Z,-1.46
2017-01-10T07:01:08.075Z,-1.14
2017-01-10T07:02:07.518Z,-1.12
2017-01-10T07:03:08.117Z,-1.76
2017-01-10T07:04:07.716Z,-2.01
2017-01-10T07:05:07.411Z,-2.09
2017-01-10T07:06:07.911Z,-2.09
2017-01-10T07:07:07.549Z,-2.04
2017-01-10T07:08:08.398Z,-2.18
2017-01-10T07:09:07.857Z,-2.25
2017-01-10T07:10:07.395Z,-2.25
2017-01-10T07:11:08.086Z,-2.16
2017-01-10T07:12:07.630Z,-2.04
2017-01-10T07:13:07.078Z,-2.03
2017-01-10T07:14:07.565Z,-1.77
2017-01-10T07:15:08.063Z,-1.66
2017-01-10T07:16:07.639Z,-1.47
2017-01-10T07:17:07.315Z,-1.49
2017-01-10T07:18:07.875Z,-1.89
2017-01-10T07:19:07.424Z,-1.91
2017-01-10T07:20:08.273Z,-2.00
2017-01-10T07:21:07.844Z,-1.88
2017-01-10T07:22:07.327Z,-1.81
2017-01-10T07:23:07.925Z,-1.91
2017-01-10T07:24:07.401Z,-1.95
2017-01-10T07:25:08.058Z,-1.91
2017-01-10T07:26:07.821Z,-1.79
2017-01-10T07:27:07.741Z,-1.99
2017-01-10T07:28:07.235Z,-1.68
2017-01-10T07:29:07.783Z,-1.71
2017-01-10T07:30:07.273Z,-1.85
2017-01-10T07:31:07.800Z,-1.93
2017-01-10T07:32:07.319Z,-2.08
2017-01-10T07:33:07.777Z,-2.15
2017-01-10T07:34:07.319Z,-1.93
2017-01-10T07:35:07.967Z,-1.87
2017-01-10T07:36:07.452Z,-1.90
2017-01-10T07:37:07.991Z,-1.93
2017-01-10T07:38:07.574Z,-1.91
2017-01-10T07:39:08.045Z,-1.80
2017-01-10T07:40:07.182Z,-2.08
2017-01-10T07:41:07.748Z,-1.82
2017-01-10T07:42:07.297Z,-1.88
2017-01-10T07:43:07.816Z,-1.78
2017-01-10T07:44:07.398Z,-1.90
2017-01-10T07:45:07.933Z,-1.73
2017-01-10T07:46:07.378Z,-1.79
2017-01-10T07:47:08.190Z,-1.89
2017-01-10T07:48:07.883Z,-1.74
2017-01-10T07:49:07.358Z,-1.82
2017-01-10T07:50:07.970Z,-1.89
2017-01-10T07:51:07.585Z,-1.96
2017-01-10T07:52:07.154Z,-1.78
2017-01-10T07:53:08.004Z,-2.15
2017-01-10T07:54:07.524Z,-2.12
2017-01-10T07:55:07.977Z,-2.10
2017-01-10T07:56:07.538Z,-1.86
2017-01-10T07:57:08.037Z,-2.11
2017-01-10T07:58:07.609Z,-1.86
2017-01-10T07:59:07.177Z,-1.91
2017-01-10T08:00:07.741Z,-1.96
2017-01-10T08:01:07.316Z,-1.72
2017-01-10T08:02:07.809Z,-1.85
2017-01-10T08:03:07.313Z,-1.76
2017-01-10T08:04:07.827Z,-1.61
2017-01-10T08:05:07.386Z,-1.83
2017-01-10T08:06:07.957Z,-1.72
2017-01-10T08:07:07.579Z,-1.91
2017-01-10T08:08:07.108Z,-1.73
2017-01-10T08:09:07.665Z,-1.42
2017-01-10T08:10:07.435Z,-1.61
2017-01-10T08:11:08.252Z,-1.63
2017-01-10T08:12:07.751Z,-1.58
2017-01-10T08:13:07.291Z,-1.38
2017-01-10T08:14:07.777Z,-1.48
2017-01-10T08:15:07.252Z,-1.74
2017-01-10T08:16:07.826Z,-1.51
2017-01-10T08:17:07.476Z,-1.84
2017-01-10T08:18:08.015Z,-1.47
2017-01-10T08:19:07.469Z,-1.53
2017-01-10T08:20:08.024Z,-1.44
2017-01-10T08:21:07.883Z,-1.62
2017-01-10T08:22:07.505Z,-1.40
2017-01-10T08:23:08.034Z,-1.52
2017-01-10T08:24:07.451Z,-1.62
2017-01-10T08:25:08.016Z,-1.45
2017-01-10T08:26:07.596Z,-1.34
2017-01-10T08:27:07.197Z,-1.32
2017-01-10T08:28:07.799Z,-1.47
2017-01-10T08:29:07.374Z,-1.51
2017-01-10T08:30:07.883Z,-1.40
2017-01-10T08:31:07.507Z,-1.35
2017-01-10T08:32:08.051Z,-1.13
2017-01-10T08:33:07.622Z,-1.35
2017-01-10T08:34:07.095Z,-1.45
2017-01-10T08:35:07.714Z,-1.60
2017-01-10T08:36:07.208Z,-1.19
2017-01-10T08:37:07.733Z,-1.54
2017-01-10T08:38:07.437Z,-1.38
2017-01-10T08:39:07.867Z,-1.50
2017-01-10T08:40:07.577Z,-1.29
2017-01-10T08:41:08.180Z,-1.33
2017-01-10T08:42:07.824Z,-1.24
2017-01-10T08:43:07.418Z,-1.20
2017-01-10T08:44:07.971Z,-1.34
2017-01-10T08:45:07.501Z,-1.50
2017-01-10T08:46:08.063Z,-1.15
2017-01-10T08:47:07.599Z,-0.88
2017-01-10T08:48:07.297Z,-1.07
2017-01-10T08:49:07.823Z,-0.92
2017-01-10T08:50:07.425Z,-1.28
2017-01-10T08:51:07.936Z,-1.33
2017-01-10T08:52:07.410Z,-1.48
2017-01-10T08:53:07.976Z,-1.24
2017-01-10T08:54:07.608Z,-1.12
2017-01-10T08:55:07.096Z,-0.78
2017-01-10T08:56:07.583Z,-1.08
2017-01-10T08:57:07.335Z,-0.92
2017-01-10T08:58:07.895Z,-0.85
2017-01-10T08:59:07.483Z,-1.08
2017-01-10T09:00:08.040Z,-0.85
2017-01-10T09:01:07.649Z,-1.20
2017-01-10T09:02:07.159Z,-1.13
2017-01-10T09:03:07.687Z,-1.00
2017-01-10T09:04:07.406Z,-1.17
2017-01-10T09:05:08.144Z,-1.06
2017-01-10T09:06:07.689Z,-0.93
2017-01-10T09:07:07.454Z,-1.04
2017-01-10T09:08:08.046Z,-0.97
2017-01-10T09:09:07.514Z,-1.08
2017-01-10T09:10:08.064Z,-0.95
2017-01-10T09:11:07.541Z,-0.70
2017-01-10T09:12:08.136Z,-0.70
2017-01-10T09:13:07.928Z,-0.76
2017-01-10T09:14:07.486Z,-0.75
2017-01-10T09:15:08.285Z,-0.55
2017-01-10T09:16:07.868Z,-0.66
2017-01-10T09:17:07.626Z,-0.94
2017-01-10T09:18:07.419Z,-0.61
2017-01-10T09:19:08.044Z,-0.56
2017-01-10T09:20:07.590Z,-0.88
2017-01-10T09:21:07.108Z,-0.92
2017-01-10T09:22:07.598Z,-0.79
2017-01-10T09:23:07.125Z,-0.61
2017-01-10T09:24:07.717Z,-0.77
2017-01-10T09:25:07.244Z,-0.81
2017-01-10T09:26:07.787Z,-0.81
2017-01-10T09:27:07.342Z,-0.56
2017-01-10T09:28:07.898Z,-0.60
2017-01-10T09:29:07.495Z,-0.44
2017-01-10T09:30:08.329Z,-0.43
2017-01-10T09:31:07.881Z,-0.73
2017-01-10T09:32:07.494Z,-0.67
2017-01-10T09:33:08.130Z,-0.62
2017-01-10T09:34:07.644Z,-0.61
2017-01-10T09:35:07.231Z,-0.70
2017-01-10T09:36:07.817Z,-0.73
2017-01-10T09:37:07.409Z,-0.83
2017-01-10T09:38:07.968Z,-0.68
2017-01-10T09:39:07.548Z,-0.80
2017-01-10T09:40:08.007Z,-0.82
2017-01-10T09:41:07.627Z,-0.45
2017-01-10T09:42:07.183Z,-0.49
2017-01-10T09:43:07.687Z,-0.42
2017-01-10T09:44:07.151Z,-0.59
2017-01-10T09:45:07.683Z,-0.41
2017-01-10T09:46:07.461Z,-0.56
2017-01-10T09:47:08.031Z,-0.43
2017-01-10T09:48:07.479Z,-0.62
2017-01-10T09:49:08.086Z,-0.53
2017-01-10T09:50:07.720Z,-0.39
2017-01-10T09:51:07.564Z,-0.50
2017-01-10T09:52:07.050Z,-0.36
2017-01-10T09:53:07.636Z,-0.36
2017-01-10T09:54:07.115Z,-0.46
2017-01-10T09:55:07.602Z,-0.45
2017-01-10T09:56:07.125Z,-0.26
2017-01-10T09:57:07.615Z,-0.25
2017-01-10T09:58:07.153Z,-0.19
2017-01-10T09:59:07.602Z,-0.14
2017-01-10T10:00:07.132Z,-0.14
2017-01-10T10:01:07.650Z,-0.19
2017-01-10T10:02:07.178Z,-0.00
2017-01-10T10:03:07.695Z,-0.01
2017-01-10T10:04:07.271Z,0.02
2017-01-10T10:05:07.576Z,-0.05
2017-01-10T10:06:07.060Z,0.05
2017-01-10T10:07:07.568Z,-0.02
2017-01-10T10:08:08.094Z,0.11
2017-01-10T10:09:07.665Z,0.14
2017-01-10T10:10:07.211Z,0.34
2017-01-10T10:11:07.777Z,0.35
2017-01-10T10:12:07.357Z,0.29
2017-01-10T10:13:07.946Z,0.12
2017-01-10T10:14:07.437Z,0.36
2017-01-10T10:15:07.998Z,0.42
2017-01-10T10:16:07.534Z,0.28
2017-01-10T10:17:08.141Z,0.30
2017-01-10T10:18:07.696Z,0.32
2017-01-10T10:19:07.221Z,0.21
2017-01-10T10:20:07.810Z,0.17
2017-01-10T10:21:07.401Z,0.12
2017-01-10T10:22:07.934Z,0.11
2017-01-10T10:23:07.510Z,0.29
2017-01-10T10:24:08.045Z,0.33
2017-01-10T10:25:07.343Z,0.41
2017-01-10T10:26:07.922Z,0.32
2017-01-10T10:27:07.716Z,0.17
2017-01-10T10:28:07.277Z,0.37
2017-01-10T10:29:07.877Z,0.29
2017-01-10T10:30:07.331Z,0.27
2017-01-10T10:31:07.902Z,0.18
2017-01-10T10:32:07.424Z,0.34
2017-01-10T10:33:07.965Z,0.36
2017-01-10T10:34:07.513Z,0.22
2017-01-10T10:35:07.946Z,0.35
2017-01-10T10:36:07.216Z,0.30
2017-01-10T10:37:07.757Z,0.07
2017-01-10T10:38:07.555Z,0.08
2017-01-10T10:39:08.176Z,0.19
2017-01-10T10:40:08.019Z,0.02
2017-01-10T10:41:07.547Z,0.12
2017-01-10T10:42:07.127Z,0.36
2017-01-10T10:43:07.700Z,0.49
2017-01-10T10:44:07.356Z,0.47
2017-01-10T10:45:07.863Z,0.28
2017-01-10T10:46:07.418Z,0.16
2017-01-10T10:47:08.048Z,0.19
2017-01-10T10:48:07.598Z,0.13
2017-01-10T10:49:07.123Z,0.21
2017-01-10T10:50:27.272Z,0.07
2017-01-10T10:51:07.821Z,0.22
2017-01-10T10:52:07.686Z,0.44
2017-01-10T10:53:07.213Z,0.43
2017-01-10T10:54:07.729Z,0.36
2017-01-10T10:55:07.247Z,0.30
2017-01-10T10:56:07.828Z,0.18
2017-01-10T10:57:07.346Z,0.29
2017-01-10T10:58:07.900Z,0.34
2017-01-10T10:59:07.409Z,0.41
2017-01-10T11:00:07.868Z,0.28
2017-01-10T11:01:07.402Z,0.33
2017-01-10T11:02:07.936Z,0.29
2017-01-10T11:03:07.534Z,0.21
2017-01-10T11:04:08.132Z,0.32
2017-01-10T11:05:07.773Z,0.23
2017-01-10T11:06:07.261Z,0.17
2017-01-10T11:07:07.851Z,0.35
2017-01-10T11:08:07.385Z,0.35
2017-01-10T11:09:07.864Z,0.42
2017-01-10T11:10:07.405Z,0.62
2017-01-10T11:11:07.923Z,0.62
2017-01-10T11:12:07.419Z,0.31
2017-01-10T11:13:08.051Z,0.50
2017-01-10T11:14:07.703Z,0.38
2017-01-10T11:15:07.215Z,0.50
2017-01-10T11:16:07.748Z,0.49
2017-01-10T11:17:07.434Z,0.44
2017-01-10T11:18:07.975Z,0.43
2017-01-10T11:19:07.460Z,0.53
2017-01-10T11:20:08.028Z,0.70
2017-01-10T11:21:07.556Z,0.57
2017-01-10T11:22:08.119Z,0.67
2017-01-10T11:23:07.574Z,0.66
2017-01-10T11:24:07.180Z,0.60
2017-01-10T11:25:07.758Z,0.49
2017-01-10T11:26:08.052Z,0.63
2017-01-10T11:27:07.745Z,0.76
2017-01-10T11:28:07.345Z,0.56
2017-01-10T11:29:07.837Z,0.58
2017-01-10T11:30:07.431Z,0.74
2017-01-10T11:31:07.981Z,0.72
2017-01-10T11:32:07.753Z,0.69
2017-01-10T11:33:07.268Z,0.60
2017-01-10T11:34:07.805Z,0.50
2017-01-10T11:35:07.474Z,0.51
2017-01-10T11:36:08.067Z,0.72
2017-01-10T11:37:07.598Z,0.76
2017-01-10T11:38:07.172Z,0.72
2017-01-10T11:39:07.937Z,0.63
2017-01-10T11:40:07.496Z,0.68
2017-01-10T11:41:08.068Z,0.64
2017-01-10T11:42:07.600Z,0.57
2017-01-10T11:43:07.129Z,0.61
2017-01-10T11:44:07.600Z,0.60
2017-01-10T11:45:07.126Z,0.64
2017-01-10T11:46:07.752Z,0.84
2017-01-10T11:47:07.319Z,1.04
2017-01-10T11:48:07.837Z,1.11
2017-01-10T11:49:07.363Z,1.13
2017-01-10T11:50:07.971Z,0.91
2017-01-10T11:51:07.511Z,0.89
2017-01-10T11:52:08.079Z,0.75
2017-01-10T11:53:07.680Z,0.56
2017-01-10T11:54:07.247Z,0.54
2017-01-10T11:55:07.869Z,0.62
2017-01-10T11:56:07.627Z,0.73
2017-01-10T11:57:07.174Z,0.85
2017-01-10T11:58:07.773Z,0.80
2017-01-10T11:59:07.505Z,0.78
2017-01-10T12:00:08.067Z,1.00
2017-01-10T12:01:07.555Z,1.25
2017-01-10T12:02:07.312Z,1.09
2017-01-10T12:03:07.938Z,0.81
2017-01-10T12:04:07.512Z,1.06
2017-01-10T12:05:08.181Z,0.75
2017-01-10T12:06:07.687Z,0.79
2017-01-10T12:07:07.267Z,0.60
2017-01-10T12:08:07.825Z,0.63
2017-01-10T12:09:07.383Z,0.73
2017-01-10T12:10:07.968Z,0.82
2017-01-10T12:11:07.567Z,0.96
2017-01-10T12:12:07.096Z,0.74
2017-01-10T12:13:07.644Z,0.79
2017-01-10T12:14:07.103Z,0.72
2017-01-10T12:15:07.530Z,0.92
2017-01-10T12:16:07.693Z,0.89
2017-01-10T12:17:07.325Z,0.80
2017-01-10T12:18:07.927Z,0.92
2017-01-10T12:19:07.407Z,0.79
2017-01-10T12:20:08.002Z,0.76
2017-01-10T12:21:07.519Z,0.79
2017-01-10T12:22:08.131Z,0.81
2017-01-10T12:23:07.731Z,0.79
2017-01-10T12:24:07.277Z,0.91
2017-01-10T12:25:07.796Z,0.95
2017-01-10T12:26:07.356Z,1.08
2017-01-10T12:27:07.918Z,1.00
2017-01-10T12:28:07.439Z,1.00
2017-01-10T12:29:08.028Z,0.87
2017-01-10T12:30:07.579Z,0.81
2017-01-10T12:31:07.164Z,0.95
2017-01-10T12:32:07.698Z,0.93
2017-01-10T12:33:07.245Z,0.92
2017-01-10T12:34:07.789Z,1.09
2017-01-10T12:35:07.436Z,1.03
2017-01-10T12:36:08.051Z,0.92
2017-01-10T12:37:07.589Z,0.95
2017-01-10T12:38:07.082Z,0.89
2017-01-10T12:39:07.633Z,0.84
2017-01-10T12:40:07.207Z,0.85
2017-01-10T12:41:07.768Z,0.87
2017-01-10T12:42:07.292Z,0.80
2017-01-10T12:43:07.881Z,0.98
2017-01-10T12:44:07.439Z,1.05
2017-01-10T12:45:07.960Z,0.98
2017-01-10T12:46:07.491Z,0.92
2017-01-10T12:47:08.040Z,0.82
2017-01-10T12:48:07.527Z,0.93
2017-01-10T12:49:08.071Z,1.00
2017-01-10T12:50:07.842Z,0.97
2017-01-10T12:51:07.392Z,0.91
2017-01-10T12:52:07.900Z,0.94
2017-01-10T12:53:07.351Z,0.97
2017-01-10T12:54:08.070Z,0.93
2017-01-10T12:55:07.629Z,0.71
2017-01-10T12:56:07.231Z,0.84
2017-01-10T12:57:07.813Z,0.84
2017-01-10T12:58:07.342Z,1.04
2017-01-10T12:59:07.947Z,1.13
2017-01-10T13:00:07.822Z,1.16
2017-01-10T13:01:07.625Z,1.15
2017-01-10T13:02:07.194Z,0.86
2017-01-10T13:03:07.779Z,0.91
2017-01-10T13:04:07.328Z,0.90
2017-01-10T13:05:07.972Z,1.17
2017-01-10T13:06:07.544Z,1.18
2017-01-10T13:07:08.114Z,1.07
2017-01-10T13:08:07.679Z,1.03
2017-01-10T13:09:07.207Z,0.96